createdAt,value
2017-12-25T00:04:22.048Z,74.50
2017-12-25T00:06:49.487Z,77.70
2017-12-25T00:09:16.956Z,77.80
2017-12-25T00:11:45.325Z,77.50
2017-12-25T00:14:13.584Z,76.20
2017-12-25T00:16:41.031Z,76.30
2017-12-25T00:19:08.485Z,75.60
2017-12-25T00:21:36.697Z,75.50
2017-12-25T00:24:04.169Z,75.50
2017-12-25T00:26:31.626Z,75.40
2017-12-25T00:28:59.061Z,75.00
2017-12-25T00:31:26.490Z,74.60
2017-12-25T00:33:53.948Z,73.80
2017-12-25T00:36:21.380Z,73.50
2017-12-25T00:38:48.834Z,73.60
2017-12-25T00:41:16.271Z,73.30
2017-12-25T00:43:43.724Z,73.20
2017-12-25T00:46:11.250Z,73.60
2017-12-25T00:48:38.697Z,74.10
2017-12-25T00:51:06.144Z,74.10
2017-12-25T00:53:33.611Z,74.10
2017-12-25T00:56:01.824Z,73.60
2017-12-25T00:58:29.300Z,73.60
2017-12-25T01:00:56.702Z,73.60
2017-12-25T01:03:24.132Z,74.10
2017-12-25T01:05:51.572Z,73.70
2017-12-25T01:08:19.020Z,73.80
2017-12-25T01:10:46.464Z,73.90
2017-12-25T01:13:13.940Z,73.40
2017-12-25T01:15:41.483Z,72.80
2017-12-25T01:18:08.925Z,73.30
2017-12-25T01:20:36.364Z,73.50
2017-12-25T01:23:03.811Z,73.80
2017-12-25T01:25:31.254Z,73.50
2017-12-25T01:27:58.692Z,73.60
2017-12-25T01:30:26.135Z,74.30
2017-12-25T01:32:53.585Z,74.20
2017-12-25T01:35:21.024Z,74.40
2017-12-25T01:37:48.491Z,74.70
2017-12-25T01:40:16.717Z,73.70
2017-12-25T01:42:44.155Z,73.70
2017-12-25T01:45:11.611Z,74.00
2017-12-25T01:47:40.568Z,74.60
2017-12-25T01:50:08.077Z,74.60
2017-12-25T01:52:35.556Z,74.30
2017-12-25T01:55:02.996Z,74.00
2017-12-25T01:57:33.063Z,74.00
2017-12-25T02:00:03.352Z,74.70
2017-12-25T02:02:34.326Z,73.70
2017-12-25T02:08:05.247Z,73.70
2017-12-25T02:10:32.688Z,74.00
2017-12-25T02:13:00.133Z,73.30
2017-12-25T02:15:27.559Z,73.70
2017-12-25T02:17:55.015Z,73.50
2017-12-25T02:20:22.464Z,73.20
2017-12-25T02:22:49.911Z,73.20
2017-12-25T02:25:17.348Z,73.20
2017-12-25T02:27:44.797Z,72.60
2017-12-25T02:30:12.225Z,73.00
2017-12-25T02:32:39.673Z,73.80
2017-12-25T02:35:07.101Z,72.80
2017-12-25T02:37:34.569Z,72.80
2017-12-25T02:40:02.013Z,73.30
2017-12-25T02:42:29.452Z,73.10
2017-12-25T02:44:56.897Z,72.90
2017-12-25T02:47:24.352Z,72.70
2017-12-25T02:49:51.790Z,72.90
2017-12-25T02:52:20.046Z,73.00
2017-12-25T02:54:47.516Z,72.90
2017-12-25T02:57:14.948Z,72.50
2017-12-25T02:59:42.399Z,72.10
2017-12-25T03:02:09.831Z,72.20
2017-12-25T03:04:37.280Z,72.40
2017-12-25T03:07:04.732Z,72.50
2017-12-25T03:09:32.169Z,72.60
2017-12-25T03:11:59.692Z,72.60
2017-12-25T03:14:27.152Z,72.50
2017-12-25T03:16:54.600Z,72.80
2017-12-25T03:19:22.036Z,73.00
2017-12-25T03:21:49.492Z,73.70
2017-12-25T03:24:17.052Z,73.70
2017-12-25T03:26:44.576Z,73.40
2017-12-25T03:29:12.018Z,73.90
2017-12-25T03:31:39.564Z,73.20
2017-12-25T03:34:07.109Z,72.40
2017-12-25T03:36:34.669Z,72.40
2017-12-25T03:39:02.096Z,72.40
2017-12-25T03:41:29.538Z,72.30
2017-12-25T03:43:56.970Z,71.60
2017-12-25T03:46:24.408Z,71.70
2017-12-25T03:48:51.837Z,71.50
2017-12-25T03:51:19.281Z,71.10
2017-12-25T03:53:46.749Z,71.80
2017-12-25T03:56:14.213Z,71.80
2017-12-25T03:58:41.648Z,71.90
2017-12-25T04:01:09.094Z,71.90
2017-12-25T04:03:37.291Z,72.10
2017-12-25T04:06:04.748Z,72.10
2017-12-25T04:08:32.185Z,72.00
2017-12-25T04:10:59.620Z,72.20
2017-12-25T04:13:27.967Z,72.10
2017-12-25T04:15:56.200Z,72.10
2017-12-25T04:18:23.648Z,72.20
2017-12-25T04:20:51.088Z,72.30
2017-12-25T04:23:18.548Z,72.10
2017-12-25T04:25:46.003Z,71.90
2017-12-25T04:28:13.432Z,71.80
2017-12-25T04:30:41.641Z,71.10
2017-12-25T04:33:09.083Z,71.10
2017-12-25T04:35:36.533Z,71.20
2017-12-25T04:38:03.964Z,71.40
2017-12-25T04:40:31.411Z,71.00
2017-12-25T04:42:58.845Z,71.20
2017-12-25T04:45:26.276Z,71.00
2017-12-25T04:47:53.716Z,70.60
2017-12-25T04:50:21.161Z,70.70
2017-12-25T04:52:48.622Z,70.40
2017-12-25T04:55:16.167Z,70.60
2017-12-25T04:57:43.592Z,71.00
2017-12-25T05:00:11.023Z,71.60
2017-12-25T05:02:38.495Z,71.70
2017-12-25T05:05:05.915Z,71.60
2017-12-25T05:07:33.357Z,72.00
2017-12-25T05:10:00.797Z,71.70
2017-12-25T05:12:28.227Z,71.30
2017-12-25T05:14:55.672Z,70.40
2017-12-25T05:17:23.111Z,70.70
2017-12-25T05:19:50.544Z,70.30
2017-12-25T05:22:18.012Z,70.00
2017-12-25T05:24:45.446Z,70.00
2017-12-25T05:27:12.891Z,69.40
2017-12-25T05:29:40.340Z,69.80
2017-12-25T05:32:07.785Z,70.00
2017-12-25T05:34:35.243Z,70.20
2017-12-25T05:37:02.721Z,70.60
2017-12-25T05:39:30.158Z,70.60
2017-12-25T05:41:57.595Z,70.10
2017-12-25T05:44:25.119Z,70.40
2017-12-25T05:46:52.536Z,70.40
2017-12-25T05:49:20.077Z,70.60
2017-12-25T05:51:47.572Z,70.30
2017-12-25T05:54:15.028Z,70.20
2017-12-25T05:56:42.474Z,70.50
2017-12-25T05:59:09.916Z,70.10
2017-12-25T06:01:37.357Z,69.90
2017-12-25T06:04:04.794Z,70.20
2017-12-25T06:06:32.223Z,70.30
2017-12-25T06:09:00.488Z,70.30
2017-12-25T06:11:27.920Z,70.30
2017-12-25T06:13:56.215Z,70.30
2017-12-25T06:16:23.656Z,70.30
2017-12-25T06:18:51.260Z,69.80
2017-12-25T06:21:18.684Z,70.00
2017-12-25T06:23:46.142Z,69.40
2017-12-25T06:26:13.567Z,69.50
2017-12-25T06:28:41.055Z,69.70
2017-12-25T06:31:08.544Z,69.90
2017-12-25T06:33:35.988Z,70.10
2017-12-25T06:36:03.420Z,70.20
2017-12-25T06:38:31.639Z,70.40
2017-12-25T06:40:59.105Z,70.40
2017-12-25T06:43:26.527Z,70.50
2017-12-25T06:45:53.973Z,70.60
2017-12-25T06:48:21.408Z,71.10
2017-12-25T06:50:48.864Z,70.90
2017-12-25T06:53:16.957Z,70.80
2017-12-25T06:55:45.168Z,70.80
2017-12-25T06:58:12.616Z,70.80
2017-12-25T07:00:40.063Z,70.20
2017-12-25T07:03:07.607Z,69.90
2017-12-25T07:05:35.051Z,70.70
2017-12-25T07:08:02.604Z,71.10
2017-12-25T07:10:32.104Z,71.50
2017-12-25T07:12:59.544Z,71.00
2017-12-25T07:15:26.980Z,70.60
2017-12-25T07:17:54.439Z,70.20
2017-12-25T07:20:21.896Z,70.50
2017-12-25T07:22:49.351Z,70.70
2017-12-25T07:25:17.567Z,70.20
2017-12-25T07:27:45.001Z,70.20
2017-12-25T07:30:12.484Z,69.50
2017-12-25T07:32:40.032Z,69.60
2017-12-25T07:35:07.476Z,69.80
2017-12-25T07:37:34.921Z,70.50
2017-12-25T07:40:02.361Z,70.90
2017-12-25T07:42:29.809Z,70.50
2017-12-25T07:44:58.033Z,70.70
2017-12-25T07:47:25.501Z,70.70
2017-12-25T07:49:52.980Z,70.80
2017-12-25T07:52:20.483Z,70.70
2017-12-25T07:54:48.717Z,70.20
2017-12-25T07:57:16.150Z,70.30
2017-12-25T07:59:43.594Z,71.80
2017-12-25T08:02:11.032Z,71.50
2017-12-25T08:04:38.473Z,70.70
2017-12-25T08:07:19.550Z,70.50
2017-12-25T08:09:47.086Z,71.20
2017-12-25T08:12:14.524Z,71.10
2017-12-25T08:14:41.979Z,71.00
2017-12-25T08:17:09.430Z,72.20
2017-12-25T08:19:38.850Z,72.10
2017-12-25T08:22:06.386Z,71.70
2017-12-25T08:24:33.984Z,71.90
2017-12-25T08:27:01.441Z,71.20
2017-12-25T08:29:29.426Z,71.00
2017-12-25T08:31:56.866Z,69.70
2017-12-25T08:34:24.311Z,69.80
2017-12-25T08:36:51.852Z,70.60
2017-12-25T08:39:19.333Z,70.10
2017-12-25T08:41:47.569Z,69.80
2017-12-25T08:44:15.037Z,69.70
2017-12-25T08:46:42.480Z,69.00
2017-12-25T08:49:10.686Z,68.60
2017-12-25T08:51:38.145Z,68.60
2017-12-25T08:54:05.576Z,68.90
2017-12-25T08:56:33.044Z,69.30
2017-12-25T08:59:00.580Z,68.40
2017-12-25T09:01:28.017Z,69.10
2017-12-25T09:03:55.478Z,68.40
2017-12-25T09:06:22.912Z,67.80
2017-12-25T09:08:50.361Z,67.30
2017-12-25T09:11:17.790Z,68.00
2017-12-25T09:13:45.233Z,68.90
2017-12-25T09:16:12.777Z,68.70
2017-12-25T09:18:40.329Z,68.70
2017-12-25T09:21:07.772Z,68.50
2017-12-25T09:23:35.213Z,70.20
2017-12-25T09:26:02.672Z,69.30
2017-12-25T09:28:31.681Z,68.00
2017-12-25T09:30:59.112Z,68.00
2017-12-25T09:33:26.622Z,67.80
2017-12-25T09:35:54.105Z,67.20
2017-12-25T09:38:21.616Z,67.10
2017-12-25T09:40:49.149Z,66.40
2017-12-25T09:43:16.629Z,66.60
2017-12-25T09:45:44.073Z,67.20
2017-12-25T09:48:11.516Z,66.60
2017-12-25T09:50:38.956Z,66.50
2017-12-25T09:53:06.396Z,65.40
2017-12-25T09:55:34.620Z,64.90
2017-12-25T09:58:02.074Z,64.90
2017-12-25T10:00:29.540Z,64.80
2017-12-25T10:02:57.775Z,64.40
2017-12-25T10:05:25.412Z,64.40
2017-12-25T10:07:52.866Z,64.10
2017-12-25T10:10:20.323Z,64.30
2017-12-25T10:12:48.571Z,64.40
2017-12-25T10:15:16.028Z,64.50
2017-12-25T10:17:43.464Z,64.50
2017-12-25T10:20:11.670Z,64.50
2017-12-25T10:22:39.156Z,64.60
2017-12-25T10:25:06.610Z,64.50
2017-12-25T10:27:34.152Z,63.80
2017-12-25T10:30:01.593Z,63.40
2017-12-25T10:32:29.151Z,63.00
2017-12-25T10:34:57.371Z,64.20
2017-12-25T10:37:24.815Z,64.30
2017-12-25T10:39:52.275Z,63.00
2017-12-25T10:42:19.816Z,61.80
2017-12-25T10:44:47.260Z,61.80
2017-12-25T10:47:14.704Z,60.50
2017-12-25T10:49:42.146Z,61.80
2017-12-25T10:52:09.596Z,61.40
2017-12-25T10:54:37.034Z,61.20
2017-12-25T10:57:04.475Z,61.30
2017-12-25T10:59:31.911Z,61.80
2017-12-25T11:01:59.355Z,61.40
2017-12-25T11:04:26.792Z,61.50
2017-12-25T11:06:54.227Z,61.80
2017-12-25T11:09:21.823Z,61.70
2017-12-25T11:11:50.061Z,61.80
2017-12-25T11:14:17.506Z,61.80
2017-12-25T11:16:44.976Z,61.30
2017-12-25T11:19:12.422Z,62.40
2017-12-25T11:21:40.619Z,64.10
2017-12-25T11:24:08.058Z,64.20
2017-12-25T11:26:35.499Z,64.30
2017-12-25T11:29:02.932Z,64.20
2017-12-25T11:31:30.382Z,63.60
2017-12-25T11:33:57.820Z,63.30
2017-12-25T11:36:25.268Z,63.90
2017-12-25T11:38:52.716Z,63.40
2017-12-25T11:41:20.189Z,63.80
2017-12-25T11:43:47.633Z,63.20
2017-12-25T11:46:15.072Z,63.80
2017-12-25T11:48:42.603Z,63.30
2017-12-25T11:51:10.040Z,63.00
2017-12-25T11:53:37.600Z,62.50
2017-12-25T11:56:05.041Z,62.40
2017-12-25T11:58:32.497Z,62.60
2017-12-25T12:01:00.888Z,62.60
2017-12-25T12:03:28.331Z,62.90
2017-12-25T12:05:55.759Z,63.30
2017-12-25T12:08:23.968Z,64.20
2017-12-25T12:10:51.404Z,64.20
2017-12-25T12:13:18.849Z,63.10
2017-12-25T12:15:46.285Z,63.20
2017-12-25T12:18:13.735Z,63.60
2017-12-25T12:20:41.174Z,63.20
2017-12-25T12:23:08.652Z,62.60
2017-12-25T12:25:37.597Z,61.60
2017-12-25T12:28:05.039Z,61.60
2017-12-25T12:30:32.485Z,61.20
2017-12-25T12:32:59.960Z,60.90
2017-12-25T12:35:27.401Z,61.60
2017-12-25T12:37:54.856Z,61.60
2017-12-25T12:40:22.299Z,61.00
2017-12-25T12:42:49.746Z,60.70
2017-12-25T12:45:17.954Z,62.70
2017-12-25T12:47:45.438Z,62.70
2017-12-25T12:50:12.872Z,63.50
2017-12-25T12:52:40.333Z,63.70
2017-12-25T12:55:08.545Z,63.90
2017-12-25T12:57:35.980Z,63.90
2017-12-25T13:00:03.457Z,63.50
2017-12-25T13:02:30.951Z,63.20
2017-12-25T13:04:59.145Z,63.50
2017-12-25T13:07:26.613Z,63.50
2017-12-25T13:09:54.157Z,63.40
2017-12-25T13:12:21.592Z,63.50
2017-12-25T13:14:49.146Z,62.90
2017-12-25T13:17:16.576Z,63.00
2017-12-25T13:19:44.049Z,63.10
2017-12-25T13:22:12.258Z,63.30
2017-12-25T13:24:39.849Z,63.30
2017-12-25T13:27:08.060Z,62.90
2017-12-25T13:29:35.501Z,62.70
2017-12-25T13:32:02.963Z,63.00
2017-12-25T13:34:30.467Z,63.00
2017-12-25T13:36:58.672Z,63.00
2017-12-25T13:39:26.151Z,63.00
2017-12-25T13:41:54.357Z,62.70
2017-12-25T13:44:21.844Z,62.70
2017-12-25T13:46:49.244Z,62.30
2017-12-25T13:49:16.719Z,62.30
2017-12-25T13:51:44.177Z,62.00
2017-12-25T13:54:12.476Z,62.10
2017-12-25T13:56:39.933Z,61.60
2017-12-25T13:59:07.407Z,61.70
2017-12-25T14:01:34.845Z,61.70
2017-12-25T14:04:02.304Z,61.90
2017-12-25T14:06:29.744Z,62.00
2017-12-25T14:08:57.226Z,62.10
2017-12-25T14:11:24.735Z,62.20
2017-12-25T14:13:52.161Z,63.30
2017-12-25T14:16:19.601Z,62.90
2017-12-25T14:18:48.212Z,62.80
2017-12-25T14:21:16.460Z,63.50
2017-12-25T14:23:44.670Z,63.30
2017-12-25T14:26:12.145Z,63.30
2017-12-25T14:28:39.588Z,63.80
2017-12-25T14:31:07.853Z,63.20
2017-12-25T14:33:35.306Z,63.20
2017-12-25T14:36:02.749Z,63.70
2017-12-25T14:38:30.966Z,64.80
2017-12-25T14:40:58.447Z,64.40
2017-12-25T14:43:25.893Z,64.30
2017-12-25T14:45:53.321Z,64.20
2017-12-25T14:48:20.780Z,64.00
2017-12-25T14:50:48.978Z,63.80
2017-12-25T14:53:16.465Z,63.80
2017-12-25T14:55:43.896Z,63.90
2017-12-25T14:58:11.380Z,63.90
2017-12-25T15:00:39.603Z,64.10
2017-12-25T15:03:07.039Z,64.20
2017-12-25T15:05:34.489Z,64.30
2017-12-25T15:08:01.941Z,64.30
2017-12-25T15:10:29.502Z,63.90
2017-12-25T15:12:57.715Z,64.40
2017-12-25T15:15:25.207Z,64.20
2017-12-25T15:17:52.698Z,64.40
2017-12-25T15:20:20.250Z,64.30
2017-12-25T15:22:47.697Z,64.50
2017-12-25T15:25:15.161Z,64.70
2017-12-25T15:27:42.606Z,65.30
2017-12-25T15:30:10.528Z,65.20
2017-12-25T15:32:37.981Z,65.20
2017-12-25T15:35:05.448Z,65.30
2017-12-25T15:37:32.880Z,65.70
2017-12-25T15:40:00.316Z,66.40
2017-12-25T15:42:27.805Z,66.50
2017-12-25T15:44:56.186Z,66.80
2017-12-25T15:47:23.652Z,67.00
2017-12-25T15:49:51.096Z,67.20
2017-12-25T15:52:18.540Z,67.50
2017-12-25T15:54:45.997Z,67.80
2017-12-25T15:57:13.469Z,67.70
2017-12-25T15:59:41.004Z,68.90
2017-12-25T16:02:08.445Z,69.40
2017-12-25T16:04:35.892Z,70.00
2017-12-25T16:07:03.333Z,69.20
2017-12-25T16:09:30.781Z,69.30
2017-12-25T16:11:59.245Z,69.20
2017-12-25T16:14:26.749Z,69.70
2017-12-25T16:16:54.236Z,69.40
2017-12-25T16:19:22.459Z,70.10
2017-12-25T16:21:49.938Z,70.20
2017-12-25T16:24:17.383Z,70.90
2017-12-25T16:26:44.898Z,70.90
2017-12-25T16:29:12.353Z,71.00
2017-12-25T16:31:39.776Z,71.20
2017-12-25T16:34:07.216Z,70.80
2017-12-25T16:36:34.664Z,70.90
2017-12-25T16:39:02.686Z,70.90
2017-12-25T16:41:30.164Z,71.00
2017-12-25T16:43:57.598Z,71.10
2017-12-25T16:46:25.042Z,71.00
2017-12-25T16:48:52.492Z,71.10
2017-12-25T16:51:19.932Z,70.90
2017-12-25T16:53:47.368Z,70.80
2017-12-25T16:56:14.813Z,70.90
2017-12-25T16:58:42.253Z,71.00
2017-12-25T17:01:09.744Z,71.10
2017-12-25T17:03:37.961Z,72.20
2017-12-25T17:06:05.385Z,71.50
2017-12-25T17:08:32.835Z,71.90
2017-12-25T17:11:00.256Z,72.10
2017-12-25T17:13:27.696Z,72.40
2017-12-25T17:15:55.144Z,72.50
2017-12-25T17:18:22.584Z,72.20
2017-12-25T17:20:50.117Z,72.90
2017-12-25T17:23:18.355Z,72.70
2017-12-25T17:25:45.795Z,72.70
2017-12-25T17:28:13.296Z,73.00
2017-12-25T17:30:40.744Z,73.20
2017-12-25T17:33:08.190Z,73.10
2017-12-25T17:35:35.624Z,72.70
2017-12-25T17:38:03.065Z,73.40
2017-12-25T17:40:30.496Z,73.50
2017-12-25T17:42:57.986Z,73.50
2017-12-25T17:45:25.538Z,73.10
2017-12-25T17:47:52.986Z,73.00
2017-12-25T17:50:20.420Z,73.20
2017-12-25T17:52:47.985Z,73.30
2017-12-25T17:55:15.420Z,74.20
2017-12-25T17:57:42.871Z,73.80
2017-12-25T18:00:11.073Z,73.60
2017-12-25T18:02:38.506Z,73.60
2017-12-25T18:05:06.024Z,73.30
2017-12-25T18:07:34.226Z,73.90
2017-12-25T18:10:01.672Z,73.90
2017-12-25T18:12:29.246Z,74.30
2017-12-25T18:14:56.687Z,74.40
2017-12-25T18:17:24.124Z,74.50
2017-12-25T18:19:51.600Z,75.00
2017-12-25T18:22:19.012Z,74.60
2017-12-25T18:24:46.464Z,75.10
2017-12-25T18:27:13.903Z,75.80
2017-12-25T18:29:41.347Z,75.70
2017-12-25T18:32:08.781Z,75.90
2017-12-25T18:34:36.233Z,75.60
2017-12-25T18:37:03.682Z,76.10
2017-12-25T18:39:31.129Z,75.90
2017-12-25T18:41:58.597Z,76.00
2017-12-25T18:44:26.817Z,76.00
2017-12-25T18:46:54.260Z,76.00
2017-12-25T18:49:21.711Z,75.50
2017-12-25T18:51:49.179Z,75.60
2017-12-25T18:54:17.383Z,76.10
2017-12-25T18:56:44.822Z,75.50
2017-12-25T18:59:12.296Z,75.40
2017-12-25T19:01:39.744Z,75.30
2017-12-25T19:04:07.250Z,81.80
2017-12-25T19:06:34.696Z,80.90
2017-12-25T19:09:02.128Z,78.80
2017-12-25T19:11:29.626Z,78.60
2017-12-25T19:13:57.074Z,76.20
2017-12-25T19:16:24.564Z,72.90
2017-12-25T19:18:51.990Z,72.80
2017-12-25T19:21:19.464Z,73.50
2017-12-25T19:23:46.928Z,73.50
2017-12-25T19:26:14.358Z,73.10
2017-12-25T19:28:41.788Z,73.60
2017-12-25T19:31:09.248Z,74.30
2017-12-25T19:33:36.719Z,73.70
2017-12-25T19:36:04.208Z,74.20
2017-12-25T19:38:31.685Z,74.20
2017-12-25T19:40:59.150Z,73.90
2017-12-25T19:43:27.396Z,73.40
2017-12-25T19:45:54.888Z,73.40
2017-12-25T19:48:22.311Z,73.80
2017-12-25T19:50:49.949Z,74.30
2017-12-25T19:53:18.141Z,74.80
2017-12-25T19:55:45.615Z,74.80
2017-12-25T19:58:13.153Z,74.90
2017-12-25T20:00:40.585Z,74.60
2017-12-25T20:03:09.123Z,74.60
2017-12-25T20:05:37.354Z,75.20
2017-12-25T20:08:04.840Z,75.20
2017-12-25T20:10:32.280Z,74.80
2017-12-25T20:12:59.732Z,74.70
2017-12-25T20:15:27.210Z,73.70
2017-12-25T20:17:54.663Z,74.30
2017-12-25T20:20:22.109Z,75.00
2017-12-25T20:22:49.600Z,75.40
2017-12-25T20:25:17.020Z,76.20
2017-12-25T20:27:44.710Z,76.50
2017-12-25T20:30:12.175Z,77.10
2017-12-25T20:32:39.637Z,77.20
2017-12-25T20:35:07.120Z,77.40
2017-12-25T20:37:34.601Z,77.50
2017-12-25T20:40:02.084Z,77.20
2017-12-25T20:42:30.366Z,77.10
2017-12-25T20:44:57.795Z,77.00
2017-12-25T20:47:25.275Z,76.00
2017-12-25T20:49:52.757Z,76.10
2017-12-25T20:52:20.264Z,75.90
2017-12-25T20:54:47.747Z,76.00
2017-12-25T20:57:15.219Z,76.10
2017-12-25T20:59:42.919Z,76.40
2017-12-25T21:02:10.342Z,76.70
2017-12-25T21:04:37.842Z,76.30
2017-12-25T21:07:06.112Z,76.70
2017-12-25T21:09:33.627Z,76.70
2017-12-25T21:12:01.048Z,76.70
2017-12-25T21:14:28.539Z,77.00
2017-12-25T21:16:56.016Z,77.00
2017-12-25T21:19:23.502Z,77.00
2017-12-25T21:21:50.920Z,77.00
2017-12-25T21:24:18.404Z,76.40
2017-12-25T21:26:46.680Z,75.50
2017-12-25T21:29:14.186Z,75.60
2017-12-25T21:31:41.620Z,76.00
2017-12-25T21:34:09.343Z,75.90
2017-12-25T21:36:36.843Z,75.30
2017-12-25T21:39:05.083Z,75.40
2017-12-25T21:41:32.567Z,75.40
2017-12-25T21:44:00.013Z,75.20
2017-12-25T21:46:27.504Z,75.10
2017-12-25T21:48:54.995Z,75.00
2017-12-25T21:51:22.431Z,75.00
2017-12-25T21:53:49.926Z,75.30
2017-12-25T21:56:17.415Z,75.90
2017-12-25T21:58:45.657Z,75.50
2017-12-25T22:01:13.089Z,75.50
2017-12-25T22:03:40.516Z,75.20
2017-12-25T22:06:08.008Z,75.00
2017-12-25T22:08:36.400Z,75.10
2017-12-25T22:11:03.924Z,75.00
2017-12-25T22:13:31.479Z,74.20
2017-12-25T22:15:59.008Z,74.40
2017-12-25T22:18:26.492Z,74.20
2017-12-25T22:20:53.991Z,73.50
2017-12-25T22:23:22.245Z,75.20
2017-12-25T22:25:51.394Z,75.50
2017-12-25T22:28:18.871Z,75.50
2017-12-25T22:30:47.111Z,75.40
2017-12-25T22:33:14.597Z,75.40
2017-12-25T22:35:42.995Z,75.50
2017-12-25T22:38:10.474Z,75.90
2017-12-25T22:40:38.710Z,76.10
2017-12-25T22:43:06.153Z,75.50
2017-12-25T22:45:33.627Z,74.70
2017-12-25T22:48:01.955Z,75.50
2017-12-25T22:50:29.444Z,75.50
2017-12-25T22:52:57.061Z,75.40
2017-12-25T22:55:24.554Z,74.80
2017-12-25T22:57:52.215Z,74.40
2017-12-25T23:00:19.689Z,74.90
2017-12-25T23:02:47.168Z,75.00
2017-12-25T23:05:15.594Z,74.60
2017-12-25T23:07:43.109Z,74.70
2017-12-25T23:10:10.591Z,74.80
2017-12-25T23:12:38.115Z,75.50
2017-12-25T23:15:06.066Z,75.50
2017-12-25T23:17:34.296Z,75.40
2017-12-25T23:20:01.784Z,75.40
2017-12-25T23:22:29.268Z,74.60
2017-12-25T23:24:57.523Z,74.60
2017-12-25T23:27:25.769Z,74.00
2017-12-25T23:29:53.238Z,74.00
2017-12-25T23:32:21.614Z,74.00
2017-12-25T23:34:49.131Z,73.60
2017-12-25T23:37:17.366Z,73.70
2017-12-25T23:39:44.982Z,73.70
2017-12-25T23:42:12.529Z,73.50
2017-12-25T23:44:40.023Z,73.30
2017-12-25T23:47:08.226Z,74.70
2017-12-25T23:49:35.740Z,74.20
2017-12-25T23:52:03.969Z,73.20
2017-12-25T23:54:31.438Z,73.10
2017-12-25T23:57:00.586Z,74.10
2017-12-25T23:59:28.075Z,74.10
